createdAt,value
2017-11-16T00:00:01.482Z,321.98
2017-11-16T00:02:28.399Z,331.40
2017-11-16T00:04:56.822Z,330.50
2017-11-16T00:07:23.681Z,204.90
2017-11-16T00:09:50.897Z,323.98
2017-11-16T00:12:18.049Z,283.20
2017-11-16T00:14:44.910Z,251.23
2017-11-16T00:17:12.040Z,501.25
2017-11-16T00:19:38.906Z,482.23
2017-11-16T00:22:05.737Z,321.23
2017-11-16T00:24:32.659Z,243.60
2017-11-16T00:26:59.446Z,235.27
2017-11-16T00:29:26.239Z,141.57
2017-11-16T00:31:53.404Z,173.73
2017-11-16T00:34:20.316Z,153.07
2017-11-16T00:36:47.112Z,276.80
2017-11-16T00:39:14.151Z,173.25
2017-11-16T00:41:40.948Z,157.43
2017-11-16T00:44:08.027Z,103.40
2017-11-16T00:46:34.838Z,102.82
2017-11-16T00:49:01.636Z,94.93
2017-11-16T00:51:28.467Z,90.12
2017-11-16T00:53:55.315Z,99.43
2017-11-16T00:56:22.107Z,88.32
2017-11-16T00:58:48.955Z,84.55
2017-11-16T01:01:16.028Z,84.68
2017-11-16T01:03:42.831Z,106.45
2017-11-16T01:06:09.654Z,107.37
2017-11-16T01:08:36.443Z,93.20
2017-11-16T01:11:03.497Z,96.05
2017-11-16T01:13:30.348Z,106.30
2017-11-16T01:15:57.496Z,87.07
2017-11-16T01:18:24.642Z,115.83
2017-11-16T01:20:51.469Z,99.60
2017-11-16T01:23:18.536Z,93.20
2017-11-16T01:25:45.382Z,98.07
2017-11-16T01:28:12.205Z,98.97
2017-11-16T01:30:38.995Z,102.62
2017-11-16T01:33:05.831Z,110.40
2017-11-16T01:35:32.677Z,111.47
2017-11-16T01:37:59.507Z,105.60
2017-11-16T01:40:26.303Z,108.60
2017-11-16T01:42:53.379Z,103.97
2017-11-16T01:45:20.203Z,89.95
2017-11-16T01:47:47.048Z,95.87
2017-11-16T01:50:14.120Z,128.00
2017-11-16T01:52:41.263Z,130.65
2017-11-16T01:55:08.312Z,90.57
2017-11-16T01:57:35.200Z,87.32
2017-11-16T02:00:02.609Z,90.70
2017-11-16T02:02:35.369Z,88.32
2017-11-16T02:05:02.179Z,98.60
2017-11-16T02:07:29.020Z,89.75
2017-11-16T02:09:56.137Z,84.87
2017-11-16T02:12:23.013Z,99.65
2017-11-16T02:14:49.844Z,99.72
2017-11-16T02:17:16.634Z,75.15
2017-11-16T02:19:43.476Z,78.37
2017-11-16T02:22:10.312Z,90.38
2017-11-16T02:24:37.193Z,103.10
2017-11-16T02:27:04.004Z,89.07
2017-11-16T02:29:31.094Z,107.18
2017-11-16T02:31:57.957Z,137.85
2017-11-16T02:34:25.036Z,113.20
2017-11-16T02:36:51.876Z,126.40
2017-11-16T02:39:18.740Z,136.25
2017-11-16T02:41:45.581Z,154.68
2017-11-16T02:44:12.756Z,222.18
2017-11-16T02:46:39.599Z,216.30
2017-11-16T02:49:06.413Z,273.45
2017-11-16T02:51:33.267Z,343.45
2017-11-16T02:54:00.126Z,340.90
2017-11-16T02:56:27.174Z,405.75
2017-11-16T02:58:54.087Z,360.10
2017-11-16T03:01:20.882Z,405.60
2017-11-16T03:03:47.764Z,948.58
2017-11-16T03:06:14.566Z,463.83
2017-11-16T03:08:41.695Z,493.92
2017-11-16T03:11:08.495Z,473.30
2017-11-16T03:13:35.346Z,521.25
2017-11-16T03:16:02.180Z,427.67
2017-11-16T03:18:29.020Z,496.00
2017-11-16T03:20:56.118Z,442.45
2017-11-16T03:23:22.940Z,638.07
2017-11-16T03:25:49.768Z,499.95
2017-11-16T03:28:16.583Z,928.92
2017-11-16T03:30:43.406Z,579.72
2017-11-16T03:33:10.211Z,410.60
2017-11-16T03:35:37.110Z,767.30
2017-11-16T03:38:04.222Z,603.47
2017-11-16T03:40:31.076Z,1349.68
2017-11-16T03:42:58.115Z,534.08
2017-11-16T03:45:24.983Z,523.72
2017-11-16T03:47:52.106Z,589.97
2017-11-16T03:50:19.618Z,416.38
2017-11-16T03:52:46.472Z,366.58
2017-11-16T03:55:13.294Z,454.77
2017-11-16T03:57:40.143Z,524.22
2017-11-16T04:00:07.009Z,390.52
2017-11-16T04:02:34.096Z,458.12
2017-11-16T04:05:00.968Z,497.55
2017-11-16T04:07:27.764Z,390.80
2017-11-16T04:09:54.613Z,255.68
2017-11-16T04:12:21.772Z,285.80
2017-11-16T04:14:48.636Z,230.80
2017-11-16T04:17:15.468Z,189.07
2017-11-16T04:19:42.305Z,151.68
2017-11-16T04:22:09.149Z,201.32
2017-11-16T04:24:35.990Z,286.15
2017-11-16T04:27:03.142Z,221.02
2017-11-16T04:29:30.182Z,164.68
2017-11-16T04:31:56.995Z,153.48
2017-11-16T04:34:23.844Z,117.28
2017-11-16T04:36:50.685Z,103.55
2017-11-16T04:39:17.759Z,131.10
2017-11-16T04:41:44.912Z,96.30
2017-11-16T04:44:11.698Z,127.62
2017-11-16T04:46:38.799Z,182.27
2017-11-16T04:49:05.598Z,184.73
2017-11-16T04:51:32.463Z,181.90
2017-11-16T04:53:59.292Z,143.40
2017-11-16T04:56:26.483Z,177.00
2017-11-16T04:58:53.308Z,126.40
2017-11-16T05:01:20.151Z,121.70
2017-11-16T05:03:46.972Z,157.32
2017-11-16T05:06:13.811Z,188.20
2017-11-16T05:08:40.648Z,166.37
2017-11-16T05:11:07.489Z,109.95
2017-11-16T05:13:34.302Z,156.05
2017-11-16T05:16:01.098Z,178.02
2017-11-16T05:18:28.176Z,137.80
2017-11-16T05:20:54.991Z,155.32
2017-11-16T05:23:22.063Z,167.10
2017-11-16T05:25:48.904Z,188.62
2017-11-16T05:28:15.742Z,208.13
2017-11-16T05:30:42.590Z,218.93
2017-11-16T05:33:09.427Z,219.23
2017-11-16T05:35:36.275Z,198.35
2017-11-16T05:38:03.327Z,140.68
2017-11-16T05:40:30.232Z,169.65
2017-11-16T05:42:57.432Z,326.35
2017-11-16T05:45:24.231Z,223.10
2017-11-16T05:47:51.064Z,210.10
2017-11-16T05:50:17.879Z,237.43
2017-11-16T05:52:44.999Z,180.10
2017-11-16T05:55:12.152Z,184.85
2017-11-16T05:57:38.943Z,176.65
2017-11-16T06:00:05.735Z,188.55
2017-11-16T06:02:32.616Z,225.38
2017-11-16T06:04:59.453Z,309.73
2017-11-16T06:07:26.267Z,156.45
2017-11-16T06:09:53.104Z,363.62
2017-11-16T06:12:20.151Z,728.12
2017-11-16T06:14:47.308Z,314.20
2017-11-16T06:17:14.468Z,315.42
2017-11-16T06:19:41.308Z,328.27
2017-11-16T06:22:08.350Z,339.65
2017-11-16T06:24:35.151Z,241.38
2017-11-16T06:27:02.344Z,345.00
2017-11-16T06:29:29.164Z,509.55
2017-11-16T06:31:56.335Z,338.83
2017-11-16T06:34:23.380Z,368.15
2017-11-16T06:36:50.194Z,401.75
2017-11-16T06:39:17.276Z,241.50
2017-11-16T06:41:44.429Z,296.95
2017-11-16T06:44:11.215Z,210.40
2017-11-16T06:46:38.316Z,142.62
2017-11-16T06:49:05.358Z,146.97
2017-11-16T06:51:32.411Z,135.77
2017-11-16T06:53:59.199Z,150.45
2017-11-16T06:56:26.305Z,192.50
2017-11-16T06:58:53.100Z,156.43
2017-11-16T07:01:20.265Z,169.30
2017-11-16T07:03:47.097Z,162.00
2017-11-16T07:06:14.192Z,183.80
2017-11-16T07:08:40.980Z,184.75
2017-11-16T07:11:07.795Z,180.20
2017-11-16T07:13:34.918Z,169.85
2017-11-16T07:16:01.727Z,185.57
2017-11-16T07:18:28.812Z,175.82
2017-11-16T07:20:55.633Z,196.50
2017-11-16T07:23:22.708Z,134.93
2017-11-16T07:25:49.562Z,144.77
2017-11-16T07:28:16.392Z,120.95
2017-11-16T07:30:43.544Z,95.85
2017-11-16T07:33:10.692Z,89.23
2017-11-16T07:35:37.477Z,88.62
2017-11-16T07:38:04.316Z,84.40
2017-11-16T07:40:31.102Z,74.07
2017-11-16T07:42:57.972Z,67.50
2017-11-16T07:45:25.003Z,64.47
2017-11-16T07:47:52.159Z,58.67
2017-11-16T07:50:18.956Z,57.65
2017-11-16T07:52:45.771Z,55.45
2017-11-16T07:55:12.903Z,56.72
2017-11-16T07:57:40.044Z,64.05
2017-11-16T08:00:07.205Z,68.93
2017-11-16T08:02:33.987Z,71.97
2017-11-16T08:05:00.800Z,56.87
2017-11-16T08:07:27.667Z,88.07
2017-11-16T08:09:54.445Z,63.72
2017-11-16T08:12:21.298Z,53.60
2017-11-16T08:14:48.129Z,54.33
2017-11-16T08:17:14.972Z,49.45
2017-11-16T08:19:41.758Z,48.30
2017-11-16T08:22:08.588Z,53.83
2017-11-16T08:24:35.395Z,71.87
2017-11-16T08:27:02.220Z,65.40
2017-11-16T08:29:29.308Z,77.12
2017-11-16T08:31:56.363Z,106.47
2017-11-16T08:34:23.408Z,74.05
2017-11-16T08:36:50.210Z,85.47
2017-11-16T08:39:17.040Z,88.03
2017-11-16T08:41:43.877Z,90.87
2017-11-16T08:44:11.002Z,80.85
2017-11-16T08:46:37.843Z,53.30
2017-11-16T08:49:04.664Z,53.08
2017-11-16T08:51:31.517Z,78.78
2017-11-16T08:53:58.669Z,48.85
2017-11-16T08:56:25.524Z,46.10
2017-11-16T08:58:52.359Z,34.50
2017-11-16T09:01:19.200Z,54.90
2017-11-16T09:03:46.022Z,45.78
2017-11-16T09:06:12.864Z,29.27
2017-11-16T09:08:39.659Z,28.33
2017-11-16T09:11:06.466Z,30.62
2017-11-16T09:13:33.313Z,24.55
2017-11-16T09:16:00.457Z,20.12
2017-11-16T09:18:27.503Z,18.05
2017-11-16T09:20:54.550Z,20.37
2017-11-16T09:23:21.354Z,25.93
2017-11-16T09:25:48.212Z,22.60
2017-11-16T09:28:15.746Z,22.95
2017-11-16T09:30:45.934Z,24.65
2017-11-16T09:33:14.953Z,27.40
2017-11-16T09:35:44.609Z,19.85
2017-11-16T09:38:12.939Z,22.87
2017-11-16T09:40:42.368Z,27.13
2017-11-16T09:43:11.642Z,21.30
2017-11-16T09:45:40.265Z,18.97
2017-11-16T09:48:11.348Z,21.67
2017-11-16T09:50:40.951Z,19.20
2017-11-16T09:53:09.286Z,22.17
2017-11-16T09:55:38.349Z,21.23
2017-11-16T09:58:09.660Z,18.33
2017-11-16T10:00:40.191Z,19.23
2017-11-16T10:03:09.602Z,17.12
2017-11-16T10:05:40.265Z,17.05
2017-11-16T10:08:09.702Z,17.58
2017-11-16T10:10:39.265Z,20.55
2017-11-16T10:13:09.153Z,16.20
2017-11-16T10:15:41.105Z,15.10
2017-11-16T10:18:09.646Z,13.50
2017-11-16T10:20:39.618Z,20.62
2017-11-16T10:23:08.598Z,19.02
2017-11-16T10:25:40.149Z,21.58
2017-11-16T10:28:08.919Z,20.58
2017-11-16T10:30:37.804Z,22.92
2017-11-16T10:33:06.015Z,24.23
2017-11-16T10:35:35.632Z,19.48
2017-11-16T10:38:07.319Z,18.87
2017-11-16T10:40:37.251Z,22.20
2017-11-16T10:43:06.669Z,25.40
2017-11-16T10:45:37.898Z,27.27
2017-11-16T10:48:06.151Z,27.20
2017-11-16T10:50:35.060Z,30.63
2017-11-16T10:53:04.750Z,30.20
2017-11-16T10:55:38.430Z,29.80
2017-11-16T10:58:06.408Z,32.80
2017-11-16T11:00:33.528Z,32.22
2017-11-16T11:03:01.232Z,33.72
2017-11-16T11:05:29.420Z,29.98
2017-11-16T11:07:57.989Z,29.33
2017-11-16T11:10:26.272Z,33.57
2017-11-16T11:12:53.999Z,37.35
2017-11-16T11:15:21.557Z,33.83
2017-11-16T11:17:48.961Z,33.08
2017-11-16T11:20:17.415Z,25.52
2017-11-16T11:22:44.957Z,28.65
2017-11-16T11:25:11.912Z,28.02
2017-11-16T11:27:39.053Z,28.65
2017-11-16T11:30:06.916Z,31.33
2017-11-16T11:32:36.627Z,33.67
2017-11-16T11:35:04.642Z,33.83
2017-11-16T11:37:32.561Z,37.08
2017-11-16T11:40:00.579Z,38.47
2017-11-16T11:42:29.334Z,34.70
2017-11-16T11:44:57.568Z,33.33
2017-11-16T11:47:25.151Z,34.08
2017-11-16T11:49:52.395Z,33.00
2017-11-16T11:52:20.661Z,36.22
2017-11-16T11:54:48.310Z,33.55
2017-11-16T11:57:15.794Z,29.17
2017-11-16T11:59:43.874Z,31.65
2017-11-16T12:02:11.672Z,33.05
2017-11-16T12:04:38.565Z,32.90
2017-11-16T12:07:07.138Z,30.73
2017-11-16T12:09:36.675Z,27.17
2017-11-16T12:12:06.175Z,26.23
2017-11-16T12:14:35.174Z,29.20
2017-11-16T12:17:03.745Z,25.50
2017-11-16T12:19:32.540Z,23.75
2017-11-16T12:22:02.092Z,25.65
2017-11-16T12:24:30.086Z,28.00
2017-11-16T12:26:58.349Z,29.55
2017-11-16T12:29:27.500Z,30.80
2017-11-16T12:31:57.206Z,30.60
2017-11-16T12:34:26.046Z,28.83
2017-11-16T12:36:53.657Z,29.30
2017-11-16T12:39:20.549Z,28.77
2017-11-16T12:41:47.435Z,30.40
2017-11-16T12:44:14.626Z,28.25
2017-11-16T12:46:41.776Z,25.77
2017-11-16T12:49:08.649Z,29.45
2017-11-16T12:51:35.525Z,23.62
2017-11-16T12:54:02.394Z,24.80
2017-11-16T12:56:29.509Z,20.70
2017-11-16T12:58:56.600Z,21.87
2017-11-16T13:01:23.459Z,21.65
2017-11-16T13:03:50.602Z,20.98
2017-11-16T13:06:18.173Z,18.52
2017-11-16T13:08:46.701Z,17.62
2017-11-16T13:11:15.371Z,16.75
2017-11-16T13:13:42.862Z,18.70
2017-11-16T13:16:10.097Z,17.40
2017-11-16T13:18:37.903Z,16.85
2017-11-16T13:21:07.244Z,17.05
2017-11-16T13:23:35.901Z,16.27
2017-11-16T13:26:03.651Z,15.23
2017-11-16T13:28:31.268Z,16.55
2017-11-16T13:30:58.961Z,15.23
2017-11-16T13:33:27.577Z,15.32
2017-11-16T13:35:55.104Z,17.30
2017-11-16T13:38:22.931Z,13.50
2017-11-16T13:40:50.458Z,16.00
2017-11-16T13:43:17.878Z,14.57
2017-11-16T13:45:45.787Z,16.33
2017-11-16T13:48:12.960Z,17.60
2017-11-16T13:50:40.349Z,16.30
2017-11-16T13:53:08.524Z,15.98
2017-11-16T13:55:38.242Z,18.30
2017-11-16T13:58:05.942Z,16.17
2017-11-16T14:00:34.102Z,17.45
2017-11-16T14:03:02.236Z,15.65
2017-11-16T14:05:30.784Z,17.10
2017-11-16T14:07:59.192Z,18.48
2017-11-16T14:10:27.052Z,16.73
2017-11-16T14:12:55.781Z,16.50
2017-11-16T14:15:23.766Z,17.10
2017-11-16T14:17:51.879Z,17.48
2017-11-16T14:20:20.339Z,18.55
2017-11-16T14:22:48.269Z,18.77
2017-11-16T14:25:17.666Z,25.00
2017-11-16T14:27:44.674Z,22.23
2017-11-16T14:30:11.558Z,21.48
2017-11-16T14:32:38.430Z,21.30
2017-11-16T14:35:05.518Z,19.67
2017-11-16T14:37:32.721Z,20.58
2017-11-16T14:40:00.587Z,21.23
2017-11-16T14:42:28.017Z,22.35
2017-11-16T14:44:55.056Z,21.20
2017-11-16T14:47:23.595Z,21.53
2017-11-16T14:49:50.613Z,24.10
2017-11-16T14:52:17.470Z,22.10
2017-11-16T14:54:44.367Z,22.80
2017-11-16T14:57:11.227Z,24.00
2017-11-16T14:59:38.078Z,23.35
2017-11-16T15:02:05.143Z,23.10
2017-11-16T15:04:32.014Z,28.33
2017-11-16T15:06:59.146Z,30.63
2017-11-16T15:09:26.010Z,23.42
2017-11-16T15:11:52.836Z,23.63
2017-11-16T15:14:19.690Z,24.65
2017-11-16T15:16:46.524Z,22.27
2017-11-16T15:19:13.613Z,28.00
2017-11-16T15:21:40.714Z,27.35
2017-11-16T15:24:07.594Z,26.33
2017-11-16T15:26:34.701Z,24.08
2017-11-16T15:29:01.522Z,28.67
2017-11-16T15:31:28.369Z,30.10
2017-11-16T15:33:55.233Z,29.48
2017-11-16T15:36:22.103Z,33.58
2017-11-16T15:38:48.935Z,29.52
2017-11-16T15:41:15.813Z,34.17
2017-11-16T15:43:42.693Z,28.60
2017-11-16T15:46:09.857Z,28.80
2017-11-16T15:48:36.678Z,29.35
2017-11-16T15:51:03.544Z,29.27
2017-11-16T15:53:30.621Z,27.53
2017-11-16T15:55:57.472Z,26.57
2017-11-16T15:58:24.296Z,29.42
2017-11-16T16:00:51.113Z,26.65
2017-11-16T16:03:17.978Z,30.58
2017-11-16T16:05:44.842Z,27.95
2017-11-16T16:08:11.720Z,25.27
2017-11-16T16:10:38.545Z,25.95
2017-11-16T16:13:05.365Z,25.12
2017-11-16T16:15:32.200Z,26.53
2017-11-16T16:17:59.054Z,24.42
2017-11-16T16:20:25.934Z,25.95
2017-11-16T16:22:52.790Z,25.25
2017-11-16T16:25:19.613Z,30.15
2017-11-16T16:27:46.523Z,29.05
2017-11-16T16:30:13.784Z,28.62
2017-11-16T16:32:40.703Z,36.20
2017-11-16T16:35:07.567Z,50.63
2017-11-16T16:37:34.476Z,28.00
2017-11-16T16:40:02.076Z,29.37
2017-11-16T16:42:29.220Z,29.25
2017-11-16T16:44:56.884Z,27.58
2017-11-16T16:47:23.791Z,28.93
2017-11-16T16:49:50.676Z,28.90
2017-11-16T16:52:17.807Z,28.42
2017-11-16T16:54:44.959Z,27.57
2017-11-16T16:57:11.838Z,30.67
2017-11-16T16:59:38.723Z,30.98
2017-11-16T17:02:05.619Z,27.00
2017-11-16T17:04:32.529Z,28.00
2017-11-16T17:06:59.406Z,30.50
2017-11-16T17:09:26.295Z,31.25
2017-11-16T17:11:53.166Z,28.02
2017-11-16T17:14:20.079Z,26.87
2017-11-16T17:16:47.251Z,31.17
2017-11-16T17:19:14.417Z,27.83
2017-11-16T17:21:41.368Z,29.33
2017-11-16T17:24:08.226Z,29.30
2017-11-16T17:26:36.838Z,27.60
2017-11-16T17:29:04.397Z,27.25
2017-11-16T17:31:31.890Z,28.55
2017-11-16T17:34:01.689Z,27.17
2017-11-16T17:36:29.048Z,28.30
2017-11-16T17:38:56.830Z,27.20
2017-11-16T17:41:24.481Z,25.58
2017-11-16T17:43:52.733Z,30.35
2017-11-16T17:46:20.406Z,28.00
2017-11-16T17:48:48.444Z,30.27
2017-11-16T17:51:17.718Z,28.50
2017-11-16T17:53:44.980Z,27.62
2017-11-16T17:58:09.462Z,26.67
2017-11-16T18:00:36.374Z,27.55
2017-11-16T18:03:03.560Z,31.23
2017-11-16T18:05:30.706Z,29.87
2017-11-16T18:07:57.631Z,29.63
2017-11-16T18:10:24.502Z,29.37
2017-11-16T18:12:52.070Z,30.40
2017-11-16T18:15:20.247Z,30.92
2017-11-16T18:17:48.965Z,26.83
2017-11-16T18:20:17.095Z,29.00
2017-11-16T18:22:44.764Z,30.52
2017-11-16T18:25:13.137Z,29.30
2017-11-16T18:27:42.801Z,30.30
2017-11-16T18:30:11.036Z,30.65
2017-11-16T18:32:39.495Z,31.33
2017-11-16T18:35:08.356Z,30.60
2017-11-16T18:37:36.562Z,32.55
2017-11-16T18:40:05.619Z,30.37
2017-11-16T18:42:34.385Z,34.78
2017-11-16T18:45:03.859Z,29.63
2017-11-16T18:47:32.283Z,30.93
2017-11-16T18:50:00.625Z,31.50
2017-11-16T18:52:28.773Z,30.80
2017-11-16T18:54:56.353Z,31.47
2017-11-16T18:57:24.602Z,34.20
2017-11-16T18:59:51.812Z,40.33
2017-11-16T19:02:18.755Z,33.43
2017-11-16T19:04:45.738Z,34.50
2017-11-16T19:07:13.230Z,34.10
2017-11-16T19:09:40.161Z,34.17
2017-11-16T19:12:07.122Z,33.00
2017-11-16T19:14:34.334Z,32.95
2017-11-16T19:17:01.561Z,34.80
2017-11-16T19:19:28.681Z,35.10
2017-11-16T19:21:55.761Z,31.75
2017-11-16T19:24:22.758Z,35.83
2017-11-16T19:26:49.967Z,32.05
2017-11-16T19:29:17.407Z,34.60
2017-11-16T19:31:44.925Z,31.10
2017-11-16T19:34:12.146Z,36.90
2017-11-16T19:36:39.302Z,38.38
2017-11-16T19:39:06.810Z,33.92
2017-11-16T19:41:34.180Z,34.40
2017-11-16T19:44:01.398Z,32.63
2017-11-16T19:46:29.663Z,35.97
2017-11-16T19:48:56.643Z,35.97
2017-11-16T19:51:23.576Z,36.72
2017-11-16T19:53:51.130Z,38.13
2017-11-16T19:56:18.066Z,38.13
2017-11-16T19:58:44.976Z,37.95
2017-11-16T20:01:12.304Z,37.33
2017-11-16T20:03:40.021Z,42.33
2017-11-16T20:06:08.111Z,38.37
2017-11-16T20:08:35.006Z,38.70
2017-11-16T20:11:02.417Z,44.65
2017-11-16T20:13:30.877Z,40.63
2017-11-16T20:16:42.367Z,42.75
2017-11-16T20:19:09.261Z,41.45
2017-11-16T20:21:37.366Z,42.60
2017-11-16T20:24:04.938Z,46.53
2017-11-16T20:26:31.878Z,42.30
2017-11-16T20:28:59.336Z,42.13
2017-11-16T20:31:26.909Z,40.40
2017-11-16T20:33:55.332Z,40.05
2017-11-16T20:36:23.887Z,42.20
2017-11-16T20:38:53.225Z,45.25
2017-11-16T20:41:21.057Z,44.10
2017-11-16T20:43:48.900Z,41.60
2017-11-16T20:46:16.112Z,44.50
2017-11-16T20:48:43.167Z,42.50
2017-11-16T20:51:11.377Z,44.85
2017-11-16T20:53:40.017Z,43.00
2017-11-16T20:56:07.737Z,49.00
2017-11-16T20:58:35.777Z,45.00
2017-11-16T21:01:03.531Z,44.38
2017-11-16T21:03:31.123Z,47.05
2017-11-16T21:05:58.726Z,45.90
2017-11-16T21:08:26.466Z,47.83
2017-11-16T21:10:54.477Z,48.67
2017-11-16T21:13:21.625Z,49.97
2017-11-16T21:15:49.290Z,48.95
2017-11-16T21:18:16.737Z,51.45
2017-11-16T21:20:44.591Z,50.90
2017-11-16T21:23:14.366Z,58.40
2017-11-16T21:25:42.628Z,69.53
2017-11-16T21:28:10.885Z,56.65
2017-11-16T21:30:38.952Z,70.97
2017-11-16T21:33:07.311Z,65.12
2017-11-16T21:35:35.755Z,66.80
2017-11-16T21:38:04.093Z,74.30
2017-11-16T21:40:32.691Z,65.50
2017-11-16T21:43:00.988Z,70.43
2017-11-16T21:45:29.478Z,80.03
2017-11-16T21:47:57.342Z,78.30
2017-11-16T21:50:25.883Z,76.45
2017-11-16T21:52:53.392Z,82.82
2017-11-16T21:55:21.143Z,74.25
2017-11-16T21:57:49.198Z,89.37
2017-11-16T22:00:17.401Z,79.12
2017-11-16T22:02:45.479Z,75.15
2017-11-16T22:05:12.861Z,78.00
2017-11-16T22:07:41.039Z,75.57
2017-11-16T22:10:09.065Z,85.57
2017-11-16T22:12:36.739Z,80.60
2017-11-16T22:15:04.796Z,76.60
2017-11-16T22:17:32.709Z,78.93
2017-11-16T22:20:01.504Z,86.18
2017-11-16T22:22:29.615Z,86.70
2017-11-16T22:24:58.483Z,86.57
2017-11-16T22:27:25.766Z,83.20
2017-11-16T22:29:54.060Z,84.93
2017-11-16T22:32:22.086Z,82.72
2017-11-16T22:34:50.029Z,88.37
2017-11-16T22:37:18.220Z,88.95
2017-11-16T22:39:46.343Z,86.10
2017-11-16T22:42:15.047Z,94.22
2017-11-16T22:44:44.459Z,79.03
2017-11-16T22:47:13.264Z,85.18
2017-11-16T22:49:41.647Z,92.15
2017-11-16T22:52:10.265Z,93.20
2017-11-16T22:54:38.410Z,97.85
2017-11-16T22:57:06.347Z,98.35
2017-11-16T22:59:35.077Z,96.12
2017-11-16T23:02:03.033Z,95.87
2017-11-16T23:04:31.149Z,99.82
2017-11-16T23:06:59.404Z,101.15
2017-11-16T23:09:27.633Z,98.43
2017-11-16T23:11:56.197Z,112.90
2017-11-16T23:14:23.956Z,99.20
2017-11-16T23:16:52.553Z,113.82
2017-11-16T23:19:21.265Z,116.67
2017-11-16T23:21:49.512Z,114.62
2017-11-16T23:24:17.284Z,141.68
2017-11-16T23:26:46.789Z,123.05
2017-11-16T23:29:14.600Z,122.62
2017-11-16T23:31:43.233Z,111.20
2017-11-16T23:34:11.312Z,117.22
2017-11-16T23:36:39.553Z,118.35
2017-11-16T23:39:07.817Z,121.32
2017-11-16T23:41:36.066Z,131.05
2017-11-16T23:44:03.985Z,131.07
2017-11-16T23:46:31.873Z,137.83
2017-11-16T23:48:59.863Z,145.68
2017-11-16T23:51:27.932Z,147.53
2017-11-16T23:53:55.859Z,122.82
2017-11-16T23:56:26.203Z,158.65
2017-11-16T23:58:54.875Z,149.35
